State University, AR

8:43 PM CST on December 07, 2016 (GMT -0600)
Hilltop | | Change Station

Elev 384 ft 35.86 °N, 90.65 °W | Updated 18 seconds ago

Overcast
Overcast
39.0 °F
Feels Like 39 °F
N
0.0
Wind Variable Wind from ESE

Today
High -- | Low -- °F
--% Chance of Precip.
Yesterday
High -- | Low -- °F
Precip. -- in
Pressure 30.27 in
Visibility 10.0 miles
Clouds Overcast 5500 ft
Windchill 39 °F
Dew Point 30 °F
Humidity 70%
Rainfall 0.00 in
Snow Depth Not available.
7:00 AM 4:48 PM
First Quarter, 58% visible
METAR KJBR 080153Z AUTO 35004KT 10SM OVC055 05/M03 A3027 RMK AO2 SLP250 T00501033
Pressure 30.27 in
Visibility 10.0 miles
Clouds Overcast 5500 ft
Windchill 39 °F
Dew Point 30 °F
Humidity 70%
Rainfall 0.00 in
Snow Depth Not available.
7:00 AM 4:48 PM
First Quarter, 58% visible
METAR KJBR 080153Z AUTO 35004KT 10SM OVC055 05/M03 A3027 RMK AO2 SLP250 T00501033

10-Day Weather Forecast

Almanac

Astronomy

Dec. 07, 2016 Rise Set
Actual Time
Civil Twilight
Nautical Twilight
Astronomical Twilight
Moon
Length of Visible Light
Length of Day
Tomorrow will be .
, % of the Moon is Illuminated

Today's Extremes

State Highs State Lows

Community

WunderPhotos

Upload Photos

1,956,259 photos uploaded!

WunderBlog® & News

Nearby

Air Quality

  Air Quality AQ Index Pollutant
Not available.

Snow Depth

Station Depth Elevation

Earthquake Activity

City Distance Mag. Time & Date
Minimum magnitude displayed is 2.5.

Coastal Water Temperatures

Place Temperature

Stations

Nearby Weather Stations

Station Location Temp. Windchill Dew Point Humidity Wind Precip. Elev Updated Type
                   

Watches & Warnings

There are currently no watches in effect.